sensor_id;sensor_type;location;lat;lon;timestamp;P1;durP1;ratioP1;P2;durP2;ratioP2
46334;SDS011;32051;48.882;9.210;2022-09-14T00:01:00;1.17;;;1.08;;
46334;SDS011;32051;48.882;9.210;2022-09-14T00:03:40;5.00;;;0.95;;
46334;SDS011;32051;48.882;9.210;2022-09-14T00:06:07;2.33;;;1.60;;
46334;SDS011;32051;48.882;9.210;2022-09-14T00:08:35;4.07;;;1.10;;
46334;SDS011;32051;48.882;9.210;2022-09-14T00:11:05;4.32;;;2.03;;
46334;SDS011;32051;48.882;9.210;2022-09-14T00:13:38;2.20;;;1.20;;
46334;SDS011;32051;48.882;9.210;2022-09-14T00:16:16;1.38;;;1.02;;
46334;SDS011;32051;48.882;9.210;2022-09-14T00:18:43;2.88;;;0.95;;
46334;SDS011;32051;48.882;9.210;2022-09-14T00:21:09;1.90;;;1.00;;
46334;SDS011;32051;48.882;9.210;2022-09-14T00:23:37;19.58;;;1.63;;
46334;SDS011;32051;48.882;9.210;2022-09-14T00:26:04;1.45;;;1.38;;
46334;SDS011;32051;48.882;9.210;2022-09-14T00:28:54;3.03;;;1.13;;
46334;SDS011;32051;48.882;9.210;2022-09-14T00:31:19;3.22;;;1.10;;
46334;SDS011;32051;48.882;9.210;2022-09-14T00:33:46;3.38;;;0.88;;
46334;SDS011;32051;48.882;9.210;2022-09-14T00:36:16;2.30;;;1.20;;
46334;SDS011;32051;48.882;9.210;2022-09-14T00:38:44;5.68;;;1.38;;
46334;SDS011;32051;48.882;9.210;2022-09-14T00:41:12;1.35;;;1.20;;
46334;SDS011;32051;48.882;9.210;2022-09-14T00:46:36;4.53;;;1.13;;
46334;SDS011;32051;48.882;9.210;2022-09-14T00:49:03;1.67;;;1.30;;
46334;SDS011;32051;48.882;9.210;2022-09-14T00:51:35;7.88;;;1.27;;
46334;SDS011;32051;48.882;9.210;2022-09-14T00:54:03;1.05;;;1.05;;
46334;SDS011;32051;48.882;9.210;2022-09-14T00:56:31;1.30;;;1.13;;
46334;SDS011;32051;48.882;9.210;2022-09-14T00:58:58;2.22;;;1.20;;
46334;SDS011;32051;48.882;9.210;2022-09-14T01:01:29;1.10;;;1.00;;
46334;SDS011;32051;48.882;9.210;2022-09-14T01:03:55;4.43;;;0.80;;
46334;SDS011;32051;48.882;9.210;2022-09-14T01:06:38;2.40;;;0.98;;
46334;SDS011;32051;48.882;9.210;2022-09-14T01:09:27;5.50;;;1.48;;
46334;SDS011;32051;48.882;9.210;2022-09-14T01:12:18;1.80;;;1.33;;
46334;SDS011;32051;48.882;9.210;2022-09-14T01:15:14;2.38;;;1.60;;
46334;SDS011;32051;48.882;9.210;2022-09-14T01:18:05;0.80;;;0.80;;
46334;SDS011;32051;48.882;9.210;2022-09-14T01:20:57;1.50;;;1.10;;
46334;SDS011;32051;48.882;9.210;2022-09-14T01:26:33;9.40;;;1.20;;
46334;SDS011;32051;48.882;9.210;2022-09-14T01:32:05;8.13;;;1.23;;
46334;SDS011;32051;48.882;9.210;2022-09-14T01:40:21;9.43;;;1.35;;
46334;SDS011;32051;48.882;9.210;2022-09-14T01:43:04;1.33;;;1.30;;
46334;SDS011;32051;48.882;9.210;2022-09-14T01:45:35;6.57;;;3.35;;
46334;SDS011;32051;48.882;9.210;2022-09-14T01:48:06;13.30;;;3.65;;
46334;SDS011;32051;48.882;9.210;2022-09-14T01:50:42;7.97;;;3.38;;
46334;SDS011;32051;48.882;9.210;2022-09-14T01:53:17;6.60;;;3.00;;
46334;SDS011;32051;48.882;9.210;2022-09-14T01:55:47;5.32;;;3.22;;
46334;SDS011;32051;48.882;9.210;2022-09-14T01:58:15;6.10;;;2.40;;
46334;SDS011;32051;48.882;9.210;2022-09-14T02:00:43;5.97;;;2.78;;
46334;SDS011;32051;48.882;9.210;2022-09-14T02:03:14;6.55;;;2.92;;
46334;SDS011;32051;48.882;9.210;2022-09-14T02:05:54;3.08;;;2.60;;
46334;SDS011;32051;48.882;9.210;2022-09-14T02:08:24;9.55;;;3.45;;
46334;SDS011;32051;48.882;9.210;2022-09-14T02:10:51;8.20;;;3.83;;
46334;SDS011;32051;48.882;9.210;2022-09-14T02:13:17;6.38;;;4.18;;
46334;SDS011;32051;48.882;9.210;2022-09-14T02:15:43;8.88;;;4.40;;
46334;SDS011;32051;48.882;9.210;2022-09-14T02:18:09;7.75;;;4.03;;
46334;SDS011;32051;48.882;9.210;2022-09-14T02:23:04;9.23;;;5.07;;
46334;SDS011;32051;48.882;9.210;2022-09-14T02:25:31;6.95;;;4.57;;
46334;SDS011;32051;48.882;9.210;2022-09-14T02:27:57;6.45;;;4.97;;
46334;SDS011;32051;48.882;9.210;2022-09-14T02:30:23;6.05;;;3.90;;
46334;SDS011;32051;48.882;9.210;2022-09-14T02:32:54;9.57;;;4.78;;
46334;SDS011;32051;48.882;9.210;2022-09-14T02:38:07;17.40;;;5.38;;
46334;SDS011;32051;48.882;9.210;2022-09-14T02:40:40;12.55;;;5.00;;
46334;SDS011;32051;48.882;9.210;2022-09-14T02:43:26;12.98;;;4.80;;
46334;SDS011;32051;48.882;9.210;2022-09-14T02:46:00;6.28;;;4.32;;
46334;SDS011;32051;48.882;9.210;2022-09-14T02:50:56;12.65;;;4.88;;
46334;SDS011;32051;48.882;9.210;2022-09-14T02:53:33;11.35;;;4.05;;
46334;SDS011;32051;48.882;9.210;2022-09-14T02:56:02;5.70;;;4.55;;
46334;SDS011;32051;48.882;9.210;2022-09-14T02:58:36;10.05;;;4.90;;
46334;SDS011;32051;48.882;9.210;2022-09-14T03:01:03;9.32;;;5.32;;
46334;SDS011;32051;48.882;9.210;2022-09-14T03:03:29;12.48;;;4.40;;
46334;SDS011;32051;48.882;9.210;2022-09-14T03:05:55;6.72;;;4.65;;
46334;SDS011;32051;48.882;9.210;2022-09-14T03:08:22;8.30;;;4.63;;
46334;SDS011;32051;48.882;9.210;2022-09-14T03:10:48;17.13;;;4.60;;
46334;SDS011;32051;48.882;9.210;2022-09-14T03:13:14;6.68;;;5.10;;
46334;SDS011;32051;48.882;9.210;2022-09-14T03:15:40;13.13;;;4.32;;
46334;SDS011;32051;48.882;9.210;2022-09-14T03:18:07;6.18;;;4.25;;
46334;SDS011;32051;48.882;9.210;2022-09-14T03:20:33;6.15;;;4.30;;
46334;SDS011;32051;48.882;9.210;2022-09-14T03:23:00;6.10;;;3.75;;
46334;SDS011;32051;48.882;9.210;2022-09-14T03:25:27;15.80;;;4.25;;
46334;SDS011;32051;48.882;9.210;2022-09-14T03:27:54;7.00;;;4.15;;
46334;SDS011;32051;48.882;9.210;2022-09-14T03:30:20;5.07;;;3.85;;
46334;SDS011;32051;48.882;9.210;2022-09-14T03:32:46;5.45;;;3.42;;
46334;SDS011;32051;48.882;9.210;2022-09-14T03:35:13;4.68;;;3.47;;
46334;SDS011;32051;48.882;9.210;2022-09-14T03:37:39;13.65;;;6.03;;
46334;SDS011;32051;48.882;9.210;2022-09-14T03:40:06;6.70;;;3.67;;
46334;SDS011;32051;48.882;9.210;2022-09-14T03:42:32;4.22;;;3.80;;
46334;SDS011;32051;48.882;9.210;2022-09-14T03:44:58;9.10;;;4.05;;
46334;SDS011;32051;48.882;9.210;2022-09-14T03:47:24;5.38;;;4.00;;
46334;SDS011;32051;48.882;9.210;2022-09-14T03:49:51;4.80;;;3.53;;
46334;SDS011;32051;48.882;9.210;2022-09-14T03:52:17;7.63;;;3.88;;
46334;SDS011;32051;48.882;9.210;2022-09-14T03:54:44;7.63;;;4.40;;
46334;SDS011;32051;48.882;9.210;2022-09-14T03:57:10;8.95;;;3.78;;
46334;SDS011;32051;48.882;9.210;2022-09-14T03:59:36;6.10;;;4.10;;
46334;SDS011;32051;48.882;9.210;2022-09-14T04:02:02;4.82;;;4.43;;
46334;SDS011;32051;48.882;9.210;2022-09-14T04:04:28;4.75;;;4.30;;
46334;SDS011;32051;48.882;9.210;2022-09-14T04:06:54;6.47;;;3.53;;
46334;SDS011;32051;48.882;9.210;2022-09-14T04:09:20;4.30;;;3.90;;
46334;SDS011;32051;48.882;9.210;2022-09-14T04:11:46;9.05;;;4.53;;
46334;SDS011;32051;48.882;9.210;2022-09-14T04:14:13;5.57;;;4.20;;
46334;SDS011;32051;48.882;9.210;2022-09-14T04:16:40;5.78;;;3.72;;
46334;SDS011;32051;48.882;9.210;2022-09-14T04:19:09;8.13;;;5.00;;
46334;SDS011;32051;48.882;9.210;2022-09-14T04:21:36;8.05;;;3.60;;
46334;SDS011;32051;48.882;9.210;2022-09-14T04:24:02;5.90;;;4.22;;
46334;SDS011;32051;48.882;9.210;2022-09-14T04:26:28;5.97;;;4.20;;
46334;SDS011;32051;48.882;9.210;2022-09-14T04:28:55;11.80;;;5.30;;
46334;SDS011;32051;48.882;9.210;2022-09-14T04:31:21;6.30;;;3.65;;
46334;SDS011;32051;48.882;9.210;2022-09-14T04:33:48;9.00;;;4.15;;
46334;SDS011;32051;48.882;9.210;2022-09-14T04:36:15;4.70;;;3.53;;
46334;SDS011;32051;48.882;9.210;2022-09-14T04:38:42;5.35;;;3.58;;
46334;SDS011;32051;48.882;9.210;2022-09-14T04:41:09;4.38;;;3.90;;
46334;SDS011;32051;48.882;9.210;2022-09-14T04:43:35;7.95;;;4.05;;
46334;SDS011;32051;48.882;9.210;2022-09-14T04:46:02;8.68;;;4.55;;
46334;SDS011;32051;48.882;9.210;2022-09-14T04:48:29;6.18;;;4.22;;
46334;SDS011;32051;48.882;9.210;2022-09-14T04:51:04;4.88;;;3.75;;
46334;SDS011;32051;48.882;9.210;2022-09-14T04:53:32;3.42;;;3.10;;
46334;SDS011;32051;48.882;9.210;2022-09-14T04:56:02;9.63;;;3.88;;
46334;SDS011;32051;48.882;9.210;2022-09-14T04:58:28;5.55;;;3.75;;
46334;SDS011;32051;48.882;9.210;2022-09-14T05:00:59;3.47;;;3.15;;
46334;SDS011;32051;48.882;9.210;2022-09-14T05:03:25;8.20;;;4.20;;
46334;SDS011;32051;48.882;9.210;2022-09-14T05:05:53;7.25;;;4.28;;
46334;SDS011;32051;48.882;9.210;2022-09-14T05:08:19;4.47;;;4.03;;
46334;SDS011;32051;48.882;9.210;2022-09-14T05:10:45;14.82;;;4.88;;
46334;SDS011;32051;48.882;9.210;2022-09-14T05:13:11;6.32;;;4.35;;
46334;SDS011;32051;48.882;9.210;2022-09-14T05:15:39;5.22;;;4.82;;
46334;SDS011;32051;48.882;9.210;2022-09-14T05:18:06;5.90;;;5.20;;
46334;SDS011;32051;48.882;9.210;2022-09-14T05:20:33;8.20;;;5.50;;
46334;SDS011;32051;48.882;9.210;2022-09-14T05:22:59;6.32;;;5.25;;
46334;SDS011;32051;48.882;9.210;2022-09-14T05:25:25;6.85;;;6.32;;
46334;SDS011;32051;48.882;9.210;2022-09-14T05:27:51;9.93;;;7.03;;
46334;SDS011;32051;48.882;9.210;2022-09-14T05:30:17;6.32;;;5.93;;
46334;SDS011;32051;48.882;9.210;2022-09-14T05:32:43;5.65;;;5.35;;
46334;SDS011;32051;48.882;9.210;2022-09-14T05:35:09;7.47;;;5.82;;
46334;SDS011;32051;48.882;9.210;2022-09-14T05:37:35;7.28;;;6.53;;
46334;SDS011;32051;48.882;9.210;2022-09-14T05:40:02;16.65;;;6.90;;
46334;SDS011;32051;48.882;9.210;2022-09-14T05:42:29;10.93;;;6.18;;
46334;SDS011;32051;48.882;9.210;2022-09-14T05:44:55;9.15;;;6.45;;
46334;SDS011;32051;48.882;9.210;2022-09-14T05:47:22;6.78;;;6.28;;
46334;SDS011;32051;48.882;9.210;2022-09-14T05:49:48;8.23;;;7.50;;
46334;SDS011;32051;48.882;9.210;2022-09-14T05:52:14;7.57;;;6.88;;
46334;SDS011;32051;48.882;9.210;2022-09-14T05:54:40;11.52;;;5.82;;
46334;SDS011;32051;48.882;9.210;2022-09-14T05:57:06;6.85;;;6.32;;
46334;SDS011;32051;48.882;9.210;2022-09-14T05:59:32;6.15;;;5.68;;
46334;SDS011;32051;48.882;9.210;2022-09-14T06:01:58;8.50;;;6.05;;
46334;SDS011;32051;48.882;9.210;2022-09-14T06:04:24;12.95;;;6.13;;
46334;SDS011;32051;48.882;9.210;2022-09-14T06:06:50;7.05;;;6.40;;
46334;SDS011;32051;48.882;9.210;2022-09-14T06:09:16;6.82;;;6.22;;
46334;SDS011;32051;48.882;9.210;2022-09-14T06:11:42;8.70;;;6.05;;
46334;SDS011;32051;48.882;9.210;2022-09-14T06:14:08;6.32;;;5.78;;
46334;SDS011;32051;48.882;9.210;2022-09-14T06:16:35;6.50;;;5.88;;
46334;SDS011;32051;48.882;9.210;2022-09-14T06:19:01;6.70;;;6.20;;
46334;SDS011;32051;48.882;9.210;2022-09-14T06:21:28;8.85;;;5.65;;
46334;SDS011;32051;48.882;9.210;2022-09-14T06:23:56;6.72;;;6.13;;
46334;SDS011;32051;48.882;9.210;2022-09-14T06:26:22;7.55;;;4.95;;
46334;SDS011;32051;48.882;9.210;2022-09-14T06:28:48;5.68;;;5.18;;
46334;SDS011;32051;48.882;9.210;2022-09-14T06:31:15;5.45;;;4.88;;
46334;SDS011;32051;48.882;9.210;2022-09-14T06:33:45;5.78;;;4.90;;
46334;SDS011;32051;48.882;9.210;2022-09-14T06:36:12;5.25;;;4.75;;
46334;SDS011;32051;48.882;9.210;2022-09-14T06:38:39;6.07;;;4.32;;
46334;SDS011;32051;48.882;9.210;2022-09-14T06:41:06;4.88;;;4.43;;
46334;SDS011;32051;48.882;9.210;2022-09-14T06:43:34;4.70;;;4.30;;
46334;SDS011;32051;48.882;9.210;2022-09-14T06:46:01;8.48;;;5.60;;
46334;SDS011;32051;48.882;9.210;2022-09-14T06:48:29;7.07;;;4.75;;
46334;SDS011;32051;48.882;9.210;2022-09-14T06:50:55;8.02;;;5.28;;
46334;SDS011;32051;48.882;9.210;2022-09-14T06:53:22;13.68;;;5.82;;
46334;SDS011;32051;48.882;9.210;2022-09-14T06:55:48;5.13;;;4.63;;
46334;SDS011;32051;48.882;9.210;2022-09-14T06:58:14;5.30;;;4.43;;
46334;SDS011;32051;48.882;9.210;2022-09-14T07:00:40;9.70;;;4.20;;
46334;SDS011;32051;48.882;9.210;2022-09-14T07:03:07;6.15;;;4.72;;
46334;SDS011;32051;48.882;9.210;2022-09-14T07:05:33;8.20;;;4.70;;
46334;SDS011;32051;48.882;9.210;2022-09-14T07:07:59;5.95;;;4.38;;
46334;SDS011;32051;48.882;9.210;2022-09-14T07:10:25;4.35;;;4.00;;
46334;SDS011;32051;48.882;9.210;2022-09-14T07:12:57;8.70;;;4.30;;
46334;SDS011;32051;48.882;9.210;2022-09-14T07:15:23;7.47;;;4.85;;
46334;SDS011;32051;48.882;9.210;2022-09-14T07:17:49;4.85;;;3.95;;
46334;SDS011;32051;48.882;9.210;2022-09-14T07:20:16;10.63;;;3.88;;
46334;SDS011;32051;48.882;9.210;2022-09-14T07:22:42;6.97;;;4.00;;
46334;SDS011;32051;48.882;9.210;2022-09-14T07:25:09;4.10;;;3.70;;
46334;SDS011;32051;48.882;9.210;2022-09-14T07:27:35;5.53;;;3.35;;
46334;SDS011;32051;48.882;9.210;2022-09-14T07:30:04;5.78;;;2.83;;
46334;SDS011;32051;48.882;9.210;2022-09-14T07:32:31;3.60;;;3.30;;
46334;SDS011;32051;48.882;9.210;2022-09-14T07:34:57;6.57;;;2.83;;
46334;SDS011;32051;48.882;9.210;2022-09-14T07:37:23;9.50;;;3.63;;
46334;SDS011;32051;48.882;9.210;2022-09-14T07:39:49;8.68;;;2.85;;
46334;SDS011;32051;48.882;9.210;2022-09-14T07:42:15;3.38;;;2.22;;
46334;SDS011;32051;48.882;9.210;2022-09-14T07:44:41;2.03;;;1.90;;
46334;SDS011;32051;48.882;9.210;2022-09-14T07:47:07;6.57;;;1.90;;
46334;SDS011;32051;48.882;9.210;2022-09-14T07:49:33;1.52;;;1.42;;
46334;SDS011;32051;48.882;9.210;2022-09-14T07:51:59;5.25;;;1.67;;
46334;SDS011;32051;48.882;9.210;2022-09-14T07:54:25;5.50;;;1.85;;
46334;SDS011;32051;48.882;9.210;2022-09-14T07:56:51;2.83;;;2.30;;
46334;SDS011;32051;48.882;9.210;2022-09-14T07:59:18;8.98;;;2.10;;
46334;SDS011;32051;48.882;9.210;2022-09-14T08:01:44;2.45;;;1.77;;
46334;SDS011;32051;48.882;9.210;2022-09-14T08:04:10;3.63;;;2.05;;
46334;SDS011;32051;48.882;9.210;2022-09-14T08:06:36;2.75;;;2.13;;
46334;SDS011;32051;48.882;9.210;2022-09-14T08:09:05;1.85;;;1.75;;
46334;SDS011;32051;48.882;9.210;2022-09-14T08:11:32;4.07;;;1.48;;
46334;SDS011;32051;48.882;9.210;2022-09-14T08:14:01;8.68;;;1.52;;
46334;SDS011;32051;48.882;9.210;2022-09-14T08:16:28;6.53;;;2.60;;
46334;SDS011;32051;48.882;9.210;2022-09-14T08:18:55;1.58;;;1.48;;
46334;SDS011;32051;48.882;9.210;2022-09-14T08:21:21;9.70;;;1.60;;
46334;SDS011;32051;48.882;9.210;2022-09-14T08:23:47;11.73;;;1.50;;
46334;SDS011;32051;48.882;9.210;2022-09-14T08:26:15;3.05;;;1.58;;
46334;SDS011;32051;48.882;9.210;2022-09-14T08:28:41;10.80;;;1.77;;
46334;SDS011;32051;48.882;9.210;2022-09-14T08:31:09;1.55;;;1.35;;
46334;SDS011;32051;48.882;9.210;2022-09-14T08:33:36;2.08;;;1.45;;
46334;SDS011;32051;48.882;9.210;2022-09-14T08:36:03;4.63;;;2.45;;
46334;SDS011;32051;48.882;9.210;2022-09-14T08:38:29;3.38;;;1.52;;
46334;SDS011;32051;48.882;9.210;2022-09-14T08:40:55;5.95;;;1.25;;
46334;SDS011;32051;48.882;9.210;2022-09-14T08:43:23;3.78;;;1.60;;
46334;SDS011;32051;48.882;9.210;2022-09-14T08:45:51;5.25;;;1.95;;
46334;SDS011;32051;48.882;9.210;2022-09-14T08:48:24;4.80;;;1.63;;
46334;SDS011;32051;48.882;9.210;2022-09-14T08:50:50;1.92;;;1.50;;
46334;SDS011;32051;48.882;9.210;2022-09-14T08:53:18;2.05;;;1.27;;
46334;SDS011;32051;48.882;9.210;2022-09-14T08:55:47;6.97;;;2.47;;
46334;SDS011;32051;48.882;9.210;2022-09-14T09:00:50;1.48;;;1.25;;
46334;SDS011;32051;48.882;9.210;2022-09-14T09:03:23;4.82;;;1.48;;
46334;SDS011;32051;48.882;9.210;2022-09-14T09:05:56;2.28;;;1.45;;
46334;SDS011;32051;48.882;9.210;2022-09-14T09:08:25;6.57;;;1.40;;
46334;SDS011;32051;48.882;9.210;2022-09-14T09:10:54;4.28;;;1.70;;
46334;SDS011;32051;48.882;9.210;2022-09-14T09:13:24;3.70;;;1.70;;
46334;SDS011;32051;48.882;9.210;2022-09-14T09:15:55;10.23;;;2.50;;
46334;SDS011;32051;48.882;9.210;2022-09-14T09:18:35;7.32;;;1.70;;
46334;SDS011;32051;48.882;9.210;2022-09-14T09:21:06;2.50;;;1.52;;
46334;SDS011;32051;48.882;9.210;2022-09-14T09:23:33;4.03;;;1.27;;
46334;SDS011;32051;48.882;9.210;2022-09-14T09:26:02;3.22;;;1.38;;
46334;SDS011;32051;48.882;9.210;2022-09-14T09:28:29;1.75;;;1.50;;
46334;SDS011;32051;48.882;9.210;2022-09-14T09:31:04;3.60;;;1.63;;
46334;SDS011;32051;48.882;9.210;2022-09-14T09:33:50;1.85;;;1.60;;
46334;SDS011;32051;48.882;9.210;2022-09-14T09:36:20;2.05;;;1.20;;
46334;SDS011;32051;48.882;9.210;2022-09-14T09:38:46;3.47;;;1.40;;
46334;SDS011;32051;48.882;9.210;2022-09-14T09:41:15;4.82;;;1.52;;
46334;SDS011;32051;48.882;9.210;2022-09-14T09:43:58;6.18;;;1.77;;
46334;SDS011;32051;48.882;9.210;2022-09-14T09:46:34;2.72;;;1.15;;
46334;SDS011;32051;48.882;9.210;2022-09-14T09:49:03;1.30;;;0.95;;
46334;SDS011;32051;48.882;9.210;2022-09-14T09:51:30;10.25;;;1.80;;
46334;SDS011;32051;48.882;9.210;2022-09-14T09:54:01;7.43;;;1.50;;
46334;SDS011;32051;48.882;9.210;2022-09-14T09:56:28;3.30;;;1.67;;
46334;SDS011;32051;48.882;9.210;2022-09-14T09:58:55;5.80;;;1.50;;
46334;SDS011;32051;48.882;9.210;2022-09-14T10:01:34;8.63;;;1.08;;
46334;SDS011;32051;48.882;9.210;2022-09-14T10:04:04;3.55;;;1.25;;
46334;SDS011;32051;48.882;9.210;2022-09-14T10:06:31;5.63;;;1.20;;
46334;SDS011;32051;48.882;9.210;2022-09-14T10:09:05;10.23;;;1.60;;
46334;SDS011;32051;48.882;9.210;2022-09-14T10:14:03;4.28;;;1.88;;
46334;SDS011;32051;48.882;9.210;2022-09-14T10:16:34;1.48;;;1.10;;
46334;SDS011;32051;48.882;9.210;2022-09-14T10:19:01;1.67;;;1.00;;
46334;SDS011;32051;48.882;9.210;2022-09-14T10:21:27;1.27;;;1.17;;
46334;SDS011;32051;48.882;9.210;2022-09-14T10:24:03;3.50;;;1.52;;
46334;SDS011;32051;48.882;9.210;2022-09-14T10:26:33;3.40;;;1.10;;
46334;SDS011;32051;48.882;9.210;2022-09-14T10:32:03;3.17;;;1.13;;
46334;SDS011;32051;48.882;9.210;2022-09-14T10:34:31;6.28;;;1.50;;
46334;SDS011;32051;48.882;9.210;2022-09-14T10:37:06;3.90;;;1.23;;
46334;SDS011;32051;48.882;9.210;2022-09-14T10:39:42;3.67;;;1.02;;
46334;SDS011;32051;48.882;9.210;2022-09-14T10:42:16;6.55;;;1.00;;
46334;SDS011;32051;48.882;9.210;2022-09-14T11:00:10;3.30;;;0.90;;
46334;SDS011;32051;48.882;9.210;2022-09-14T11:10:45;2.42;;;1.02;;
46334;SDS011;32051;48.882;9.210;2022-09-14T11:16:01;3.80;;;1.10;;
46334;SDS011;32051;48.882;9.210;2022-09-14T11:18:25;2.17;;;0.85;;
46334;SDS011;32051;48.882;9.210;2022-09-14T11:23:47;6.82;;;1.38;;
46334;SDS011;32051;48.882;9.210;2022-09-14T11:28:53;2.15;;;0.52;;
46334;SDS011;32051;48.882;9.210;2022-09-14T11:31:32;1.95;;;0.95;;
46334;SDS011;32051;48.882;9.210;2022-09-14T11:36:43;2.65;;;1.00;;
46334;SDS011;32051;48.882;9.210;2022-09-14T11:39:41;9.20;;;1.63;;
46334;SDS011;32051;48.882;9.210;2022-09-14T11:45:33;4.40;;;0.80;;
46334;SDS011;32051;48.882;9.210;2022-09-14T11:47:47;2.42;;;0.90;;
46334;SDS011;32051;48.882;9.210;2022-09-14T11:50:23;2.28;;;1.00;;
46334;SDS011;32051;48.882;9.210;2022-09-14T11:52:58;2.38;;;1.13;;
46334;SDS011;32051;48.882;9.210;2022-09-14T11:55:37;2.97;;;0.95;;
46334;SDS011;32051;48.882;9.210;2022-09-14T11:58:16;6.75;;;0.70;;
46334;SDS011;32051;48.882;9.210;2022-09-14T12:11:47;2.70;;;0.70;;
46334;SDS011;32051;48.882;9.210;2022-09-14T12:19:45;15.18;;;1.35;;
46334;SDS011;32051;48.882;9.210;2022-09-14T12:27:43;1.02;;;0.75;;
46334;SDS011;32051;48.882;9.210;2022-09-14T12:36:06;2.03;;;1.88;;
46334;SDS011;32051;48.882;9.210;2022-09-14T12:39:04;2.60;;;1.10;;
46334;SDS011;32051;48.882;9.210;2022-09-14T12:53:58;2.28;;;0.93;;
46334;SDS011;32051;48.882;9.210;2022-09-14T13:04:25;6.38;;;1.33;;
46334;SDS011;32051;48.882;9.210;2022-09-14T13:06:51;5.35;;;1.33;;
46334;SDS011;32051;48.882;9.210;2022-09-14T13:09:20;5.50;;;2.00;;
46334;SDS011;32051;48.882;9.210;2022-09-14T13:11:56;2.33;;;1.33;;
46334;SDS011;32051;48.882;9.210;2022-09-14T13:14:24;5.88;;;1.60;;
46334;SDS011;32051;48.882;9.210;2022-09-14T13:16:52;3.53;;;1.50;;
46334;SDS011;32051;48.882;9.210;2022-09-14T13:19:23;2.97;;;1.00;;
46334;SDS011;32051;48.882;9.210;2022-09-14T13:21:50;8.23;;;1.52;;
46334;SDS011;32051;48.882;9.210;2022-09-14T13:24:22;4.40;;;2.70;;
46334;SDS011;32051;48.882;9.210;2022-09-14T13:26:48;3.63;;;1.70;;
46334;SDS011;32051;48.882;9.210;2022-09-14T13:29:15;2.55;;;1.75;;
46334;SDS011;32051;48.882;9.210;2022-09-14T13:31:43;2.22;;;1.27;;
46334;SDS011;32051;48.882;9.210;2022-09-14T13:34:23;3.15;;;1.15;;
46334;SDS011;32051;48.882;9.210;2022-09-14T13:36:49;5.93;;;1.83;;
46334;SDS011;32051;48.882;9.210;2022-09-14T13:39:26;7.47;;;1.70;;
46334;SDS011;32051;48.882;9.210;2022-09-14T13:41:54;2.10;;;1.77;;
46334;SDS011;32051;48.882;9.210;2022-09-14T13:44:31;5.55;;;1.40;;
46334;SDS011;32051;48.882;9.210;2022-09-14T13:46:58;9.00;;;1.38;;
46334;SDS011;32051;48.882;9.210;2022-09-14T13:49:26;7.10;;;1.52;;
46334;SDS011;32051;48.882;9.210;2022-09-14T13:51:54;2.38;;;1.10;;
46334;SDS011;32051;48.882;9.210;2022-09-14T13:54:38;4.97;;;1.65;;
46334;SDS011;32051;48.882;9.210;2022-09-14T13:57:11;3.45;;;1.20;;
46334;SDS011;32051;48.882;9.210;2022-09-14T14:00:01;4.07;;;1.63;;
46334;SDS011;32051;48.882;9.210;2022-09-14T14:02:23;2.35;;;0.90;;
46334;SDS011;32051;48.882;9.210;2022-09-14T14:04:51;2.67;;;0.98;;
46334;SDS011;32051;48.882;9.210;2022-09-14T14:07:18;0.88;;;0.88;;
46334;SDS011;32051;48.882;9.210;2022-09-14T14:09:50;2.08;;;0.95;;
46334;SDS011;32051;48.882;9.210;2022-09-14T14:12:21;1.00;;;0.65;;
46334;SDS011;32051;48.882;9.210;2022-09-14T14:14:51;1.17;;;1.13;;
46334;SDS011;32051;48.882;9.210;2022-09-14T14:17:20;1.27;;;0.70;;
46334;SDS011;32051;48.882;9.210;2022-09-14T14:19:50;1.48;;;1.25;;
46334;SDS011;32051;48.882;9.210;2022-09-14T14:22:23;3.45;;;1.00;;
46334;SDS011;32051;48.882;9.210;2022-09-14T14:24:50;1.10;;;0.63;;
46334;SDS011;32051;48.882;9.210;2022-09-14T14:27:35;2.58;;;0.80;;
46334;SDS011;32051;48.882;9.210;2022-09-14T14:30:14;3.08;;;0.90;;
46334;SDS011;32051;48.882;9.210;2022-09-14T14:32:41;1.45;;;1.02;;
46334;SDS011;32051;48.882;9.210;2022-09-14T14:35:14;3.10;;;1.30;;
46334;SDS011;32051;48.882;9.210;2022-09-14T14:37:40;2.70;;;1.10;;
46334;SDS011;32051;48.882;9.210;2022-09-14T14:40:07;2.05;;;0.70;;
46334;SDS011;32051;48.882;9.210;2022-09-14T14:42:33;2.15;;;1.00;;
46334;SDS011;32051;48.882;9.210;2022-09-14T14:44:59;5.15;;;1.08;;
46334;SDS011;32051;48.882;9.210;2022-09-14T14:47:25;3.53;;;1.65;;
46334;SDS011;32051;48.882;9.210;2022-09-14T14:49:51;5.25;;;0.88;;
46334;SDS011;32051;48.882;9.210;2022-09-14T14:52:18;2.38;;;0.90;;
46334;SDS011;32051;48.882;9.210;2022-09-14T14:54:44;3.30;;;1.20;;
46334;SDS011;32051;48.882;9.210;2022-09-14T14:57:10;3.22;;;0.98;;
46334;SDS011;32051;48.882;9.210;2022-09-14T14:59:36;2.78;;;0.90;;
46334;SDS011;32051;48.882;9.210;2022-09-14T15:02:03;1.90;;;1.17;;
46334;SDS011;32051;48.882;9.210;2022-09-14T15:04:31;0.70;;;0.70;;
46334;SDS011;32051;48.882;9.210;2022-09-14T15:06:57;5.82;;;0.73;;
46334;SDS011;32051;48.882;9.210;2022-09-14T15:09:27;2.50;;;0.50;;
46334;SDS011;32051;48.882;9.210;2022-09-14T15:11:54;1.67;;;0.75;;
46334;SDS011;32051;48.882;9.210;2022-09-14T15:14:21;3.25;;;1.00;;
46334;SDS011;32051;48.882;9.210;2022-09-14T15:16:48;1.70;;;1.00;;
46334;SDS011;32051;48.882;9.210;2022-09-14T15:19:14;1.85;;;0.70;;
46334;SDS011;32051;48.882;9.210;2022-09-14T15:21:41;2.75;;;0.90;;
46334;SDS011;32051;48.882;9.210;2022-09-14T15:24:07;2.42;;;0.70;;
46334;SDS011;32051;48.882;9.210;2022-09-14T15:26:33;1.77;;;0.90;;
46334;SDS011;32051;48.882;9.210;2022-09-14T15:29:00;1.45;;;0.77;;
46334;SDS011;32051;48.882;9.210;2022-09-14T15:31:26;5.55;;;0.88;;
46334;SDS011;32051;48.882;9.210;2022-09-14T15:33:52;6.78;;;1.75;;
46334;SDS011;32051;48.882;9.210;2022-09-14T15:39:03;4.85;;;1.02;;
46334;SDS011;32051;48.882;9.210;2022-09-14T15:41:30;1.60;;;0.73;;
46334;SDS011;32051;48.882;9.210;2022-09-14T15:43:56;1.50;;;0.95;;
46334;SDS011;32051;48.882;9.210;2022-09-14T15:46:22;1.85;;;0.80;;
46334;SDS011;32051;48.882;9.210;2022-09-14T15:48:48;6.82;;;0.70;;
46334;SDS011;32051;48.882;9.210;2022-09-14T15:51:14;2.47;;;0.93;;
46334;SDS011;32051;48.882;9.210;2022-09-14T15:53:41;8.00;;;1.75;;
46334;SDS011;32051;48.882;9.210;2022-09-14T15:56:10;1.02;;;0.77;;
46334;SDS011;32051;48.882;9.210;2022-09-14T15:58:36;1.02;;;1.02;;
46334;SDS011;32051;48.882;9.210;2022-09-14T16:01:06;0.50;;;0.50;;
46334;SDS011;32051;48.882;9.210;2022-09-14T16:03:33;12.40;;;5.63;;
46334;SDS011;32051;48.882;9.210;2022-09-14T16:05:59;2.20;;;1.70;;
46334;SDS011;32051;48.882;9.210;2022-09-14T16:08:25;2.50;;;1.45;;
46334;SDS011;32051;48.882;9.210;2022-09-14T16:10:58;3.85;;;1.17;;
46334;SDS011;32051;48.882;9.210;2022-09-14T16:13:24;0.80;;;0.80;;
46334;SDS011;32051;48.882;9.210;2022-09-14T16:15:50;1.60;;;0.65;;
46334;SDS011;32051;48.882;9.210;2022-09-14T16:18:17;3.65;;;0.50;;
46334;SDS011;32051;48.882;9.210;2022-09-14T16:20:44;0.55;;;0.55;;
46334;SDS011;32051;48.882;9.210;2022-09-14T16:23:10;1.52;;;0.60;;
46334;SDS011;32051;48.882;9.210;2022-09-14T16:25:37;1.42;;;0.68;;
46334;SDS011;32051;48.882;9.210;2022-09-14T16:28:06;2.90;;;0.70;;
46334;SDS011;32051;48.882;9.210;2022-09-14T16:30:32;4.82;;;1.25;;
46334;SDS011;32051;48.882;9.210;2022-09-14T16:32:58;2.50;;;0.70;;
46334;SDS011;32051;48.882;9.210;2022-09-14T16:35:24;0.63;;;0.55;;
46334;SDS011;32051;48.882;9.210;2022-09-14T16:37:50;4.25;;;0.73;;
46334;SDS011;32051;48.882;9.210;2022-09-14T16:40:16;1.55;;;0.60;;
46334;SDS011;32051;48.882;9.210;2022-09-14T16:42:42;0.70;;;0.70;;
46334;SDS011;32051;48.882;9.210;2022-09-14T16:45:11;2.60;;;0.50;;
46334;SDS011;32051;48.882;9.210;2022-09-14T16:47:37;2.03;;;0.45;;
46334;SDS011;32051;48.882;9.210;2022-09-14T16:50:04;2.22;;;1.05;;
46334;SDS011;32051;48.882;9.210;2022-09-14T16:52:30;0.63;;;0.60;;
46334;SDS011;32051;48.882;9.210;2022-09-14T16:54:56;0.88;;;0.50;;